createdAt,value
2019-05-30T00:00:22.654Z,13.74
2019-05-30T00:03:10.218Z,13.82
2019-05-30T00:05:58.393Z,13.78
2019-05-30T00:08:46.964Z,13.55
2019-05-30T00:11:35.038Z,13.61
2019-05-30T00:14:23.409Z,13.23
2019-05-30T00:17:12.219Z,13.05
2019-05-30T00:20:00.952Z,12.85
2019-05-30T00:22:49.720Z,12.69
2019-05-30T00:25:38.363Z,12.78
2019-05-30T00:28:26.755Z,13.02
2019-05-30T00:31:15.189Z,13.00
2019-05-30T00:34:04.208Z,12.52
2019-05-30T00:36:52.314Z,12.14
2019-05-30T00:39:40.969Z,12.11
2019-05-30T00:42:29.258Z,12.23
2019-05-30T00:45:21.254Z,12.20
2019-05-30T00:48:07.690Z,12.34
2019-05-30T00:50:56.370Z,12.53
2019-05-30T00:53:44.527Z,12.50
2019-05-30T00:56:32.973Z,12.48
2019-05-30T00:59:20.794Z,12.19
2019-05-30T01:02:09.095Z,12.26
2019-05-30T01:04:57.173Z,12.28
2019-05-30T01:07:45.495Z,12.22
2019-05-30T01:10:33.594Z,12.35
2019-05-30T01:13:22.097Z,12.33
2019-05-30T01:16:10.717Z,12.31
2019-05-30T01:18:59.054Z,12.28
2019-05-30T01:21:46.856Z,12.21
2019-05-30T01:24:34.772Z,12.23
2019-05-30T01:27:23.362Z,12.33
2019-05-30T01:30:12.020Z,12.31
2019-05-30T01:33:00.105Z,12.21
2019-05-30T01:35:48.391Z,11.77
2019-05-30T01:38:36.988Z,11.71
2019-05-30T01:41:24.800Z,11.30
2019-05-30T01:44:12.948Z,11.10
2019-05-30T01:47:01.997Z,11.24
2019-05-30T01:49:50.416Z,11.06
2019-05-30T01:52:38.650Z,11.01
2019-05-30T01:55:27.052Z,11.21
2019-05-30T01:58:15.187Z,11.37
2019-05-30T02:01:19.139Z,11.35
2019-05-30T02:03:53.049Z,11.12
2019-05-30T02:06:41.257Z,11.20
2019-05-30T02:09:29.372Z,11.41
2019-05-30T02:12:17.500Z,10.92
2019-05-30T02:15:05.574Z,10.95
2019-05-30T02:17:53.304Z,11.04
2019-05-30T02:20:41.575Z,11.18
2019-05-30T02:23:29.822Z,10.74
2019-05-30T02:26:18.291Z,11.01
2019-05-30T02:29:06.500Z,11.08
2019-05-30T02:31:54.554Z,11.12
2019-05-30T02:34:43.012Z,11.09
2019-05-30T02:37:30.909Z,10.74
2019-05-30T02:40:19.593Z,10.86
2019-05-30T02:43:11.496Z,10.82
2019-05-30T02:45:57.694Z,10.89
2019-05-30T02:48:58.251Z,10.74
2019-05-30T02:51:35.210Z,10.56
2019-05-30T02:54:23.389Z,10.75
2019-05-30T02:57:12.615Z,10.76
2019-05-30T03:00:02.175Z,10.90
2019-05-30T03:02:49.966Z,10.88
2019-05-30T03:05:37.869Z,10.79
2019-05-30T03:08:26.254Z,10.69
2019-05-30T03:11:15.546Z,10.84
2019-05-30T03:14:04.917Z,10.97
2019-05-30T03:16:53.405Z,11.03
2019-05-30T03:19:41.868Z,10.63
2019-05-30T03:22:30.180Z,10.44
2019-05-30T03:25:19.042Z,10.61
2019-05-30T03:28:07.510Z,10.76
2019-05-30T03:30:56.617Z,10.57
2019-05-30T03:33:45.026Z,10.81
2019-05-30T03:36:33.001Z,10.86
2019-05-30T03:39:21.104Z,10.98
2019-05-30T03:42:11.318Z,11.19
2019-05-30T03:44:58.535Z,11.58
2019-05-30T03:47:48.924Z,11.62
2019-05-30T03:50:38.687Z,11.42
2019-05-30T03:53:27.095Z,11.01
2019-05-30T03:56:17.462Z,11.27
2019-05-30T03:59:13.053Z,11.33
2019-05-30T04:02:23.035Z,11.34
2019-05-30T04:05:14.194Z,11.68
2019-05-30T04:08:04.017Z,11.97
2019-05-30T04:10:53.903Z,11.97
2019-05-30T04:13:44.552Z,11.52
2019-05-30T04:16:34.373Z,11.35
2019-05-30T04:19:22.308Z,11.23
2019-05-30T04:22:11.571Z,11.28
2019-05-30T04:25:00.589Z,11.52
2019-05-30T04:27:48.971Z,11.59
2019-05-30T04:30:37.062Z,11.80
2019-05-30T04:33:33.125Z,12.03
2019-05-30T04:36:18.902Z,12.38
2019-05-30T04:39:08.624Z,12.68
2019-05-30T04:41:56.508Z,13.07
2019-05-30T04:44:44.968Z,13.33
2019-05-30T04:47:32.643Z,13.47
2019-05-30T04:50:21.208Z,13.77
2019-05-30T04:53:10.208Z,14.23
2019-05-30T04:55:59.025Z,14.29
2019-05-30T04:58:47.161Z,14.46
2019-05-30T05:01:35.584Z,14.91
2019-05-30T05:04:23.918Z,15.30
2019-05-30T05:07:13.594Z,15.63
2019-05-30T05:10:02.098Z,16.15
2019-05-30T05:12:50.537Z,15.98
2019-05-30T05:15:38.933Z,16.14
2019-05-30T05:18:26.994Z,16.34
2019-05-30T05:21:15.399Z,16.68
2019-05-30T05:24:03.447Z,17.05
2019-05-30T05:26:51.817Z,17.08
2019-05-30T05:29:40.323Z,16.84
2019-05-30T05:32:28.719Z,16.89
2019-05-30T05:35:16.819Z,17.22
2019-05-30T05:38:04.916Z,17.59
2019-05-30T05:40:53.372Z,17.81
2019-05-30T05:43:41.715Z,17.50
2019-05-30T05:46:30.395Z,17.81
2019-05-30T05:49:18.824Z,17.80
2019-05-30T05:52:06.569Z,17.94
2019-05-30T05:54:54.948Z,17.86
2019-05-30T05:57:43.440Z,18.03
2019-05-30T06:00:31.682Z,18.58
2019-05-30T06:03:20.397Z,18.96
2019-05-30T06:06:08.623Z,19.31
2019-05-30T06:08:57.152Z,19.54
2019-05-30T06:11:48.848Z,19.70
2019-05-30T06:14:35.425Z,19.85
2019-05-30T06:17:24.915Z,20.24
2019-05-30T06:20:14.763Z,20.05
2019-05-30T06:23:03.831Z,19.46
2019-05-30T06:25:53.184Z,19.61
2019-05-30T06:28:42.467Z,19.74
2019-05-30T06:31:31.970Z,19.97
2019-05-30T06:34:32.826Z,20.39
2019-05-30T06:37:13.290Z,20.11
2019-05-30T06:40:02.317Z,20.38
2019-05-30T06:42:52.010Z,20.40
2019-05-30T06:45:41.202Z,20.57
2019-05-30T06:48:31.073Z,20.56
2019-05-30T06:51:21.043Z,20.85
2019-05-30T06:54:10.242Z,21.27
2019-05-30T06:56:59.017Z,21.13
2019-05-30T06:59:48.301Z,20.91
2019-05-30T07:02:37.948Z,21.55
2019-05-30T07:05:29.747Z,21.94
2019-05-30T07:08:18.444Z,21.77
2019-05-30T07:11:07.346Z,21.52
2019-05-30T07:13:56.650Z,21.19
2019-05-30T07:16:45.919Z,21.73
2019-05-30T07:19:37.732Z,21.56
2019-05-30T07:22:26.280Z,21.67
2019-05-30T07:25:16.113Z,21.58
2019-05-30T07:28:05.462Z,22.12
2019-05-30T07:30:55.120Z,22.34
2019-05-30T07:33:44.219Z,22.68
2019-05-30T07:36:34.465Z,23.33
2019-05-30T07:39:27.069Z,23.12
2019-05-30T07:42:15.362Z,23.32
2019-05-30T07:45:05.914Z,23.02
2019-05-30T07:47:55.400Z,22.58
2019-05-30T07:50:44.327Z,22.52
2019-05-30T07:53:34.831Z,22.80
2019-05-30T07:56:24.664Z,22.74
2019-05-30T07:59:13.865Z,23.35
2019-05-30T08:02:03.349Z,23.36
2019-05-30T08:04:53.038Z,23.95
2019-05-30T08:07:42.427Z,24.46
2019-05-30T08:10:32.085Z,24.50
2019-05-30T08:13:21.138Z,24.28
2019-05-30T08:16:10.388Z,24.19
2019-05-30T08:18:59.470Z,24.94
2019-05-30T08:21:48.986Z,25.38
2019-05-30T08:24:38.853Z,25.16
2019-05-30T08:27:28.368Z,25.16
2019-05-30T08:30:18.288Z,24.79
2019-05-30T08:33:08.321Z,25.03
2019-05-30T08:35:57.918Z,24.99
2019-05-30T08:38:48.338Z,25.62
2019-05-30T08:41:37.738Z,25.62
2019-05-30T08:44:27.077Z,25.58
2019-05-30T08:47:16.371Z,24.45
2019-05-30T08:50:06.606Z,23.87
2019-05-30T08:52:56.348Z,24.09
2019-05-30T08:55:45.847Z,25.02
2019-05-30T08:58:36.699Z,24.56
2019-05-30T09:01:26.124Z,24.56
2019-05-30T09:04:15.520Z,25.47
2019-05-30T09:07:04.729Z,25.51
2019-05-30T09:09:54.479Z,25.61
2019-05-30T09:12:48.727Z,26.04
2019-05-30T09:15:34.394Z,25.18
2019-05-30T09:18:26.208Z,25.66
2019-05-30T09:21:15.846Z,26.54
2019-05-30T09:24:05.609Z,26.54
2019-05-30T09:26:54.980Z,26.52
2019-05-30T09:29:44.747Z,26.00
2019-05-30T09:32:34.457Z,25.96
2019-05-30T09:35:23.855Z,26.51
2019-05-30T09:38:13.189Z,26.66
2019-05-30T09:41:02.484Z,25.99
2019-05-30T09:43:51.594Z,25.09
2019-05-30T09:46:41.368Z,25.31
2019-05-30T09:49:32.101Z,24.66
2019-05-30T09:52:21.409Z,24.75
2019-05-30T09:55:12.133Z,24.61
2019-05-30T09:58:01.554Z,25.01
2019-05-30T10:00:52.303Z,24.87
2019-05-30T10:03:43.229Z,25.57
2019-05-30T10:06:32.511Z,25.59
2019-05-30T10:09:21.627Z,25.94
2019-05-30T10:12:10.961Z,25.66
2019-05-30T10:15:00.347Z,24.97
2019-05-30T10:17:52.849Z,24.97
2019-05-30T10:20:40.838Z,25.41
2019-05-30T10:23:29.934Z,25.78
2019-05-30T10:26:19.473Z,25.78
2019-05-30T10:29:08.517Z,25.38
2019-05-30T10:31:57.364Z,25.17
2019-05-30T10:34:47.874Z,24.74
2019-05-30T10:37:37.702Z,24.74
2019-05-30T10:40:27.196Z,24.74
2019-05-30T10:43:16.692Z,24.79
2019-05-30T10:46:05.640Z,24.99
2019-05-30T10:48:54.920Z,24.76
2019-05-30T10:51:46.165Z,24.76
2019-05-30T10:54:34.945Z,25.54
2019-05-30T10:57:24.317Z,25.97
2019-05-30T11:00:15.334Z,25.29
2019-05-30T11:03:04.803Z,26.19
2019-05-30T11:06:03.370Z,26.19
2019-05-30T11:08:56.692Z,26.71
2019-05-30T11:11:46.622Z,26.57
2019-05-30T11:14:36.161Z,26.42
2019-05-30T11:17:25.377Z,26.42
2019-05-30T11:20:14.983Z,26.08
2019-05-30T11:23:04.738Z,26.59
2019-05-30T11:25:54.701Z,26.42
2019-05-30T11:28:44.331Z,25.86
2019-05-30T11:31:33.609Z,25.16
2019-05-30T11:34:23.011Z,25.16
2019-05-30T11:37:19.421Z,26.71
2019-05-30T11:40:03.019Z,26.71
2019-05-30T11:42:53.367Z,27.30
2019-05-30T11:45:42.806Z,26.55
2019-05-30T11:48:32.418Z,27.32
2019-05-30T11:51:21.713Z,27.44
2019-05-30T11:54:11.588Z,27.88
2019-05-30T11:57:01.273Z,27.32
2019-05-30T11:59:50.626Z,27.50
2019-05-30T12:02:39.876Z,27.70
2019-05-30T12:05:29.395Z,27.62
2019-05-30T12:08:18.909Z,27.06
2019-05-30T12:11:07.627Z,26.42
2019-05-30T12:13:57.401Z,25.51
2019-05-30T12:16:46.917Z,26.02
2019-05-30T12:19:36.116Z,26.36
2019-05-30T12:22:25.359Z,26.57
2019-05-30T12:25:15.903Z,26.42
2019-05-30T12:28:05.102Z,26.67
2019-05-30T12:30:59.444Z,26.93
2019-05-30T12:33:45.243Z,26.82
2019-05-30T12:36:34.535Z,26.50
2019-05-30T12:39:23.378Z,26.95
2019-05-30T12:42:12.630Z,26.86
2019-05-30T12:45:06.663Z,27.68
2019-05-30T12:47:53.002Z,27.40
2019-05-30T12:50:42.960Z,27.20
2019-05-30T12:53:32.429Z,27.79
2019-05-30T12:56:21.910Z,27.49
2019-05-30T12:59:11.000Z,27.22
2019-05-30T13:02:01.258Z,27.47
2019-05-30T13:04:50.133Z,27.56
2019-05-30T13:07:39.459Z,27.25
2019-05-30T13:10:29.241Z,27.53
2019-05-30T13:13:18.720Z,28.48
2019-05-30T13:16:09.032Z,28.78
2019-05-30T13:18:58.416Z,28.02
2019-05-30T13:21:48.079Z,26.74
2019-05-30T13:24:37.948Z,26.45
2019-05-30T13:27:26.916Z,26.38
2019-05-30T13:30:17.185Z,26.44
2019-05-30T13:33:06.954Z,25.80
2019-05-30T13:35:57.030Z,25.64
2019-05-30T13:38:46.594Z,26.31
2019-05-30T13:41:36.017Z,26.24
2019-05-30T13:44:24.805Z,26.85
2019-05-30T13:47:14.350Z,26.54
2019-05-30T13:50:08.635Z,27.35
2019-05-30T13:52:54.507Z,26.76
2019-05-30T13:55:43.571Z,26.07
2019-05-30T13:58:32.673Z,25.57
2019-05-30T14:01:22.184Z,26.47
2019-05-30T14:04:11.588Z,26.39
2019-05-30T14:07:00.421Z,27.03
2019-05-30T14:09:50.220Z,26.06
2019-05-30T14:12:39.629Z,25.40
2019-05-30T14:15:29.055Z,24.87
2019-05-30T14:18:18.295Z,25.11
2019-05-30T14:21:07.582Z,25.21
2019-05-30T14:23:56.485Z,27.27
2019-05-30T14:26:45.955Z,27.90
2019-05-30T14:29:35.122Z,28.48
2019-05-30T14:32:24.770Z,28.60
2019-05-30T14:35:14.184Z,28.41
2019-05-30T14:38:04.594Z,28.19
2019-05-30T14:40:54.308Z,26.58
2019-05-30T14:43:43.585Z,25.62
2019-05-30T14:46:33.319Z,24.96
2019-05-30T14:49:22.630Z,24.96
2019-05-30T14:52:12.132Z,26.56
2019-05-30T14:55:02.940Z,27.86
2019-05-30T14:57:52.225Z,27.03
2019-05-30T15:00:42.457Z,26.22
2019-05-30T15:03:31.829Z,25.40
2019-05-30T15:06:21.206Z,24.71
2019-05-30T15:09:20.175Z,24.17
2019-05-30T15:12:01.404Z,24.60
2019-05-30T15:14:50.843Z,24.60
2019-05-30T15:17:40.197Z,25.85
2019-05-30T15:20:29.032Z,27.85
2019-05-30T15:23:18.491Z,28.65
2019-05-30T15:26:08.257Z,29.62
2019-05-30T15:28:57.458Z,29.68
2019-05-30T15:31:46.788Z,28.97
2019-05-30T15:34:36.107Z,28.80
2019-05-30T15:37:25.302Z,27.16
2019-05-30T15:40:15.321Z,25.29
2019-05-30T15:43:05.156Z,25.15
2019-05-30T15:45:54.943Z,24.45
2019-05-30T15:48:44.219Z,24.45
2019-05-30T15:51:33.493Z,23.85
2019-05-30T15:54:22.989Z,23.62
2019-05-30T15:57:13.355Z,23.90
2019-05-30T16:00:03.506Z,23.94
2019-05-30T16:02:53.245Z,24.03
2019-05-30T16:05:42.686Z,23.93
2019-05-30T16:08:32.266Z,23.62
2019-05-30T16:11:21.302Z,23.62
2019-05-30T16:14:11.123Z,23.45
2019-05-30T16:17:00.363Z,23.29
2019-05-30T16:19:49.548Z,23.30
2019-05-30T16:22:39.216Z,23.28
2019-05-30T16:25:34.335Z,23.22
2019-05-30T16:28:19.998Z,23.49
2019-05-30T16:31:09.649Z,23.51
2019-05-30T16:33:58.911Z,23.30
2019-05-30T16:36:48.210Z,22.81
2019-05-30T16:39:37.605Z,22.91
2019-05-30T16:42:27.120Z,22.78
2019-05-30T16:45:20.252Z,22.56
2019-05-30T16:48:07.378Z,22.48
2019-05-30T16:50:56.174Z,22.17
2019-05-30T16:53:44.995Z,22.03
2019-05-30T16:56:34.549Z,21.96
2019-05-30T16:59:23.685Z,21.89
2019-05-30T17:02:14.776Z,21.84
2019-05-30T17:05:04.964Z,21.72
2019-05-30T17:07:54.222Z,21.61
2019-05-30T17:10:43.448Z,21.55
2019-05-30T17:13:33.056Z,21.44
2019-05-30T17:16:22.164Z,21.40
2019-05-30T17:19:11.127Z,21.35
2019-05-30T17:22:00.915Z,21.30
2019-05-30T17:24:50.148Z,20.96
2019-05-30T17:27:39.443Z,20.80
2019-05-30T17:30:29.313Z,20.56
2019-05-30T17:33:21.540Z,20.44
2019-05-30T17:36:13.184Z,20.31
2019-05-30T17:39:02.414Z,20.21
2019-05-30T17:41:51.737Z,20.12
2019-05-30T17:44:41.636Z,19.92
2019-05-30T17:47:33.862Z,19.79
2019-05-30T17:50:21.927Z,19.55
2019-05-30T17:53:10.739Z,19.39
2019-05-30T17:56:00.155Z,19.42
2019-05-30T17:58:49.498Z,19.34
2019-05-30T18:01:39.011Z,19.08
2019-05-30T18:04:28.770Z,18.90
2019-05-30T18:07:18.500Z,18.85
2019-05-30T18:10:09.319Z,18.76
2019-05-30T18:12:58.761Z,18.70
2019-05-30T18:15:48.124Z,18.69
2019-05-30T18:18:37.393Z,18.61
2019-05-30T18:21:27.475Z,18.36
2019-05-30T18:24:17.391Z,18.41
2019-05-30T18:27:07.163Z,18.40
2019-05-30T18:29:56.503Z,18.41
2019-05-30T18:32:45.545Z,18.41
2019-05-30T18:35:35.169Z,18.37
2019-05-30T18:38:24.688Z,18.38
2019-05-30T18:41:16.492Z,18.32
2019-05-30T18:44:05.158Z,18.32
2019-05-30T18:46:54.597Z,18.47
2019-05-30T18:49:43.596Z,18.58
2019-05-30T18:52:32.778Z,18.64
2019-05-30T18:55:22.175Z,18.60
2019-05-30T18:58:11.740Z,18.57
2019-05-30T19:01:01.087Z,18.40
2019-05-30T19:03:51.174Z,18.41
2019-05-30T19:06:40.975Z,18.30
2019-05-30T19:09:31.791Z,18.18
2019-05-30T19:12:20.499Z,18.11
2019-05-30T19:15:10.243Z,18.07
2019-05-30T19:18:08.995Z,17.96
2019-05-30T19:20:56.792Z,18.08
2019-05-30T19:23:46.149Z,17.87
2019-05-30T19:26:38.434Z,17.80
2019-05-30T19:29:28.957Z,17.56
2019-05-30T19:32:18.951Z,17.56
2019-05-30T19:35:19.084Z,17.43
2019-05-30T19:38:08.701Z,17.30
2019-05-30T19:40:58.360Z,17.23
2019-05-30T19:43:47.844Z,17.14
2019-05-30T19:46:38.382Z,16.89
2019-05-30T19:49:34.750Z,16.72
2019-05-30T19:52:24.304Z,16.73
2019-05-30T19:55:14.377Z,16.67
2019-05-30T19:58:03.650Z,16.53
2019-05-30T20:00:58.770Z,16.42
2019-05-30T20:03:49.809Z,16.27
2019-05-30T20:06:39.391Z,16.18
2019-05-30T20:09:29.057Z,16.11
2019-05-30T20:12:18.564Z,15.98
2019-05-30T20:15:08.941Z,16.00
2019-05-30T20:17:58.308Z,16.01
2019-05-30T20:20:56.474Z,15.64
2019-05-30T20:23:49.478Z,15.71
2019-05-30T20:26:29.381Z,15.69
2019-05-30T20:29:18.825Z,15.62
2019-05-30T20:32:08.216Z,15.52
2019-05-30T20:34:57.954Z,15.57
2019-05-30T20:37:47.220Z,15.38
2019-05-30T20:40:36.912Z,15.29
2019-05-30T20:43:26.831Z,14.92
2019-05-30T20:46:23.127Z,14.88
2019-05-30T20:49:06.574Z,14.99
2019-05-30T20:51:56.185Z,15.00
2019-05-30T20:54:45.738Z,14.98
2019-05-30T20:57:34.595Z,14.80
2019-05-30T21:00:27.010Z,14.81
2019-05-30T21:03:16.214Z,14.73
2019-05-30T21:06:05.491Z,14.74
2019-05-30T21:08:55.925Z,14.24
2019-05-30T21:11:46.742Z,13.85
2019-05-30T21:14:37.288Z,13.44
2019-05-30T21:17:28.835Z,13.19
2019-05-30T21:20:19.045Z,13.07
2019-05-30T21:23:08.792Z,13.13
2019-05-30T21:25:58.389Z,13.33
2019-05-30T21:28:47.646Z,12.96
2019-05-30T21:31:37.288Z,13.06
2019-05-30T21:34:27.060Z,13.37
2019-05-30T21:37:15.955Z,13.25
2019-05-30T21:40:06.439Z,13.23
2019-05-30T21:43:05.836Z,13.39
2019-05-30T21:45:47.063Z,13.30
2019-05-30T21:48:36.411Z,13.20
2019-05-30T21:51:25.555Z,13.48
2019-05-30T21:54:14.758Z,13.47
2019-05-30T21:57:04.053Z,13.60
2019-05-30T21:59:53.580Z,13.53
2019-05-30T22:02:46.615Z,13.50
2019-05-30T22:05:35.697Z,13.56
2019-05-30T22:08:25.024Z,13.53
2019-05-30T22:11:14.695Z,13.39
2019-05-30T22:14:03.761Z,13.21
2019-05-30T22:16:53.053Z,12.88
2019-05-30T22:19:42.389Z,12.90
2019-05-30T22:22:32.206Z,12.91
2019-05-30T22:25:21.819Z,12.48
2019-05-30T22:28:10.656Z,12.59
2019-05-30T22:30:59.955Z,12.72
2019-05-30T22:33:49.417Z,12.67
2019-05-30T22:36:38.761Z,12.77
2019-05-30T22:39:28.008Z,12.78
2019-05-30T22:42:17.453Z,12.54
2019-05-30T22:45:07.315Z,12.66
2019-05-30T22:47:56.773Z,12.53
2019-05-30T22:50:46.694Z,12.48
2019-05-30T22:53:35.615Z,12.67
2019-05-30T22:56:25.010Z,12.78
2019-05-30T22:59:14.477Z,12.68
2019-05-30T23:02:04.311Z,12.60
2019-05-30T23:04:54.296Z,12.62
2019-05-30T23:07:43.639Z,12.43
2019-05-30T23:10:33.252Z,11.94
2019-05-30T23:13:23.162Z,12.01
2019-05-30T23:16:12.113Z,12.12
2019-05-30T23:19:04.650Z,12.16
2019-05-30T23:21:55.032Z,12.05
2019-05-30T23:24:44.676Z,11.63
2019-05-30T23:27:33.918Z,11.14
2019-05-30T23:30:23.416Z,10.90
2019-05-30T23:33:12.832Z,10.67
2019-05-30T23:36:00.992Z,10.15
2019-05-30T23:38:50.736Z,10.13
2019-05-30T23:41:39.115Z,10.30
2019-05-30T23:44:27.169Z,10.66
2019-05-30T23:47:15.748Z,10.57
2019-05-30T23:50:03.931Z,10.71
2019-05-30T23:52:52.125Z,10.45
2019-05-30T23:55:40.495Z,10.52
2019-05-30T23:58:29.012Z,10.71
